createdAt,value
2024-02-18T00:14:37.367Z,85.66
2024-02-18T00:29:41.667Z,85.58
2024-02-18T00:44:46.613Z,83.88
2024-02-18T00:59:52.431Z,86.44
2024-02-18T01:14:55.846Z,86.40
2024-02-18T01:29:59.946Z,86.80
2024-02-18T01:45:03.526Z,86.36
2024-02-18T02:00:08.673Z,89.00
2024-02-18T02:15:19.655Z,89.55
2024-02-18T02:30:23.250Z,89.77
2024-02-18T02:45:27.320Z,90.46
2024-02-18T03:00:32.056Z,90.30
2024-02-18T03:15:35.524Z,90.19
2024-02-18T03:30:48.275Z,91.23
2024-02-18T03:45:51.607Z,91.48
2024-02-18T04:00:55.302Z,91.44
2024-02-18T04:15:58.754Z,92.49
2024-02-18T04:31:02.475Z,92.34
2024-02-18T04:46:06.759Z,90.61
2024-02-18T05:01:11.688Z,91.42
2024-02-18T05:16:15.791Z,91.70
2024-02-18T05:31:23.384Z,91.25
2024-02-18T05:46:26.952Z,92.52
2024-02-18T06:01:31.224Z,92.05
2024-02-18T06:16:34.683Z,90.98
2024-02-18T06:31:41.187Z,91.75
2024-02-18T06:46:44.833Z,91.64
2024-02-18T07:01:48.390Z,88.34
2024-02-18T07:16:51.998Z,89.67
2024-02-18T07:31:57.345Z,89.13
2024-02-18T07:47:00.798Z,89.81
2024-02-18T08:02:06.855Z,88.56
2024-02-18T08:17:10.336Z,89.17
2024-02-18T08:32:13.639Z,88.27
2024-02-18T08:47:17.097Z,89.98
2024-02-18T09:02:20.573Z,88.62
2024-02-18T09:17:23.876Z,87.86
2024-02-18T09:32:27.282Z,86.29
2024-02-18T09:47:31.728Z,84.35
2024-02-18T10:02:41.670Z,82.78
2024-02-18T10:17:46.851Z,81.55
2024-02-18T10:32:50.878Z,80.96
2024-02-18T10:48:01.872Z,81.55
2024-02-18T11:03:10.887Z,81.56
2024-02-18T11:18:14.852Z,80.60
2024-02-18T11:33:23.748Z,77.81
2024-02-18T11:48:27.274Z,75.90
2024-02-18T12:03:30.759Z,74.53
2024-02-18T12:18:34.405Z,73.22
2024-02-18T12:33:38.621Z,73.66
2024-02-18T12:48:42.498Z,74.21
2024-02-18T13:03:46.906Z,72.38
2024-02-18T13:18:51.315Z,69.48
2024-02-18T13:33:56.148Z,70.15
2024-02-18T13:49:00.401Z,70.52
2024-02-18T14:04:04.272Z,72.29
2024-02-18T14:19:08.715Z,73.49
2024-02-18T14:34:12.807Z,73.02
2024-02-18T14:49:16.180Z,73.79
2024-02-18T15:04:19.887Z,79.05
2024-02-18T15:19:24.323Z,82.02
2024-02-18T15:34:29.772Z,83.75
2024-02-18T15:49:33.007Z,84.45
2024-02-18T16:04:36.255Z,86.94
2024-02-18T16:19:39.630Z,87.76
2024-02-18T16:34:44.936Z,88.44
2024-02-18T16:49:48.775Z,89.44
2024-02-18T17:04:54.455Z,90.22
2024-02-18T17:19:57.952Z,90.96
2024-02-18T17:35:05.579Z,91.08
2024-02-18T17:50:10.155Z,89.77
2024-02-18T18:05:14.114Z,89.99
2024-02-18T18:20:18.360Z,90.45
2024-02-18T18:35:22.540Z,89.96
2024-02-18T18:50:25.695Z,89.67
2024-02-18T19:05:31.825Z,88.91
2024-02-18T19:20:35.247Z,87.07
2024-02-18T19:35:39.357Z,86.92
2024-02-18T19:50:42.723Z,86.95
2024-02-18T20:05:46.385Z,87.77
2024-02-18T20:20:49.540Z,87.50
2024-02-18T20:35:55.922Z,86.56
2024-02-18T20:50:59.800Z,86.20
2024-02-18T21:06:05.343Z,87.01
2024-02-18T21:21:11.866Z,87.47
2024-02-18T21:36:16.555Z,87.39
2024-02-18T21:51:20.997Z,86.53
2024-02-18T22:06:24.841Z,86.86
2024-02-18T22:21:28.344Z,86.42
2024-02-18T22:36:56.678Z,86.93
2024-02-18T22:52:03.263Z,86.73
2024-02-18T23:07:21.484Z,85.93
2024-02-18T23:22:41.310Z,85.87
2024-02-18T23:38:15.585Z,85.52
2024-02-18T23:53:22.668Z,86.09
